Time;durP1;ratioP1;P1;durP2;ratioP2;P2;SDS_P1;SDS_P2;PMS_P1;PMS_P2;Temp;Humidity;BMP_temperature;BMP_pressure;BME280_temperature;BME280_humidity;BME280_pressure;Samples;Min_cycle;Max_cycle;Signal;HPM_P1;HPM_P2
2022/12/21 00:01:35;;;;;;;77.45;34.08;;;8.30;99.90;;;;;;5035291;28;20045;-70
2022/12/21 00:04:03;;;;;;;69.47;34.63;;;8.20;99.90;;;;;;5035318;28;20053;-70
2022/12/21 00:06:33;;;;;;;84.45;34.40;;;8.10;99.90;;;;;;5035699;28;20084;-70
2022/12/21 00:09:00;;;;;;;61.90;29.73;;;8.10;99.90;;;;;;5018296;28;20476;-70
2022/12/21 00:11:27;;;;;;;72.50;31.65;;;8.00;99.90;;;;;;5035394;28;20142;-70
2022/12/21 00:13:56;;;;;;;74.82;31.48;;;8.20;99.90;;;;;;5035727;28;20060;-70
2022/12/21 00:16:23;;;;;;;69.28;32.22;;;7.90;99.90;;;;;;5035299;28;20052;-69
2022/12/21 00:18:49;;;;;;;108.28;36.53;;;7.90;99.90;;;;;;5035223;28;20045;-69
2022/12/21 00:21:20;;;;;;;84.53;35.85;;;7.90;99.90;;;;;;5035234;28;20099;-69
2022/12/21 00:23:48;;;;;;;103.93;39.33;;;8.20;99.90;;;;;;5035303;28;20045;-69
2022/12/21 00:26:16;;;;;;;89.50;39.30;;;8.00;99.90;;;;;;5018035;28;20405;-69
2022/12/21 00:28:42;;;;;;;110.18;41.90;;;7.90;99.90;;;;;;5035468;28;20041;-69
2022/12/21 00:31:10;;;;;;;152.90;46.97;;;7.80;99.90;;;;;;5035244;28;20393;-69
2022/12/21 00:33:37;;;;;;;99.57;40.65;;;7.80;99.90;;;;;;5034857;28;20095;-69
2022/12/21 00:36:04;;;;;;;144.63;47.75;;;7.90;99.90;;;;;;5017874;28;20041;-69
2022/12/21 00:38:30;;;;;;;161.88;45.65;;;7.80;99.90;;;;;;5035021;28;20115;-69
2022/12/21 00:41:02;;;;;;;112.90;43.08;;;7.80;99.90;;;;;;5035633;28;20442;-69
2022/12/21 00:43:28;;;;;;;153.05;44.47;;;7.80;99.90;;;;;;5034995;28;20121;-69
2022/12/21 00:45:54;;;;;;;132.80;44.08;;;7.80;99.90;;;;;;5035072;28;20191;-69
2022/12/21 00:48:20;;;;;;;135.80;43.85;;;7.80;99.90;;;;;;5034551;28;20440;-69
2022/12/21 00:50:47;;;;;;;293.80;54.58;;;7.80;99.90;;;;;;5035005;28;20120;-69
2022/12/21 00:53:14;;;;;;;228.30;47.83;;;7.80;99.90;;;;;;5035192;28;20434;-69
2022/12/21 00:55:40;;;;;;;219.05;48.58;;;7.80;99.90;;;;;;5017514;28;20046;-69
2022/12/21 00:58:06;;;;;;;359.30;56.85;;;7.80;99.90;;;;;;5034855;28;20347;-69
2022/12/21 01:00:31;;;;;;;279.45;43.22;;;7.80;99.90;;;;;;5034660;28;20045;-69
2022/12/21 01:02:57;;;;;;;335.85;49.58;;;7.80;99.90;;;;;;5034357;28;20107;-69
2022/12/21 01:05:22;;;;;;;230.30;40.50;;;7.70;99.90;;;;;;5034890;28;20155;-69
2022/12/21 01:07:48;;;;;;;222.10;40.28;;;7.70;99.90;;;;;;5035703;28;20045;-69
2022/12/21 01:10:14;;;;;;;182.88;38.03;;;7.70;99.90;;;;;;5034911;28;20041;-69
2022/12/21 01:12:40;;;;;;;186.30;38.38;;;7.90;99.90;;;;;;5034815;28;20366;-69
2022/12/21 01:15:06;;;;;;;172.65;37.03;;;7.70;99.90;;;;;;5035319;28;20041;-69
2022/12/21 01:17:33;;;;;;;320.45;47.05;;;7.60;99.90;;;;;;5034490;28;20055;-69
2022/12/21 01:19:59;;;;;;;135.00;35.90;;;7.60;99.90;;;;;;5034936;28;20123;-69
2022/12/21 01:22:24;;;;;;;243.07;44.05;;;7.60;99.90;;;;;;5034737;28;20049;-69
2022/12/21 01:24:50;;;;;;;276.23;44.55;;;7.60;99.90;;;;;;5034568;28;20087;-69
2022/12/21 01:27:15;;;;;;;316.67;46.85;;;7.60;99.90;;;;;;5034644;28;20041;-69
2022/12/21 01:29:41;;;;;;;295.08;41.28;;;7.60;99.90;;;;;;5034688;28;20046;-69
2022/12/21 01:32:07;;;;;;;97.38;30.58;;;7.60;99.90;;;;;;5017160;28;20060;-69
2022/12/21 01:34:32;;;;;;;140.95;33.72;;;7.60;99.90;;;;;;5034096;28;20045;-69
2022/12/21 01:36:58;;;;;;;119.20;32.00;;;7.50;99.90;;;;;;5035719;28;20060;-69
2022/12/21 01:39:23;;;;;;;92.25;30.00;;;7.40;99.90;;;;;;5038207;28;20099;-69
2022/12/21 01:41:49;;;;;;;144.98;34.92;;;7.50;99.90;;;;;;5038378;28;20124;-69
2022/12/21 01:44:52;;;;;;;171.50;34.95;;;7.50;99.90;;;;;;5038756;28;20045;-68
2022/12/21 01:47:40;;;;;;;207.10;35.10;;;7.40;99.90;;;;;;5037859;28;20081;-68
2022/12/21 01:50:38;;;;;;;145.43;33.05;;;7.40;99.90;;;;;;5037557;28;20045;-69
2022/12/21 01:53:12;;;;;;;213.10;33.65;;;7.40;99.90;;;;;;5004020;28;20140;-69
2022/12/21 01:55:38;;;;;;;232.48;37.53;;;7.40;99.90;;;;;;5037877;28;20037;-69
2022/12/21 01:58:06;;;;;;;121.80;32.85;;;7.40;99.90;;;;;;5037820;28;20038;-69
2022/12/21 02:00:32;;;;;;;297.60;43.90;;;7.40;99.90;;;;;;5037881;28;20045;-69
2022/12/21 02:03:01;;;;;;;137.50;34.55;;;7.40;99.90;;;;;;5020350;28;20358;-69
2022/12/21 02:05:54;;;;;;;159.88;38.35;;;7.40;99.90;;;;;;5038044;28;20461;-69
2022/12/21 02:08:20;;;;;;;187.23;36.08;;;7.40;99.90;;;;;;5037930;28;20057;-69
2022/12/21 02:10:46;;;;;;;97.30;32.00;;;7.40;99.90;;;;;;5038013;28;20056;-69
2022/12/21 02:13:14;;;;;;;189.20;38.42;;;7.30;99.90;;;;;;5038024;28;20041;-69
2022/12/21 02:15:52;;;;;;;138.18;30.83;;;7.40;99.90;;;;;;5020071;28;20049;-69
2022/12/21 02:18:40;;;;;;;120.78;27.20;;;7.40;99.90;;;;;;5037771;28;20041;-69
2022/12/21 02:21:24;;;;;;;148.45;30.38;;;7.40;99.90;;;;;;5037207;28;20100;-68
2022/12/21 02:24:14;;;;;;;189.55;27.60;;;7.30;99.90;;;;;;5037669;28;20191;-69
2022/12/21 02:26:59;;;;;;;162.63;26.00;;;7.30;99.90;;;;;;5037449;28;20041;-69
2022/12/21 02:29:54;;;;;;;114.72;24.17;;;7.20;99.90;;;;;;5037346;28;20065;-69
2022/12/21 02:32:28;;;;;;;192.57;28.27;;;7.20;99.90;;;;;;5036790;28;20458;-69
2022/12/21 02:35:06;;;;;;;117.45;25.20;;;7.20;99.90;;;;;;5036604;28;20115;-69
2022/12/21 02:37:46;;;;;;;166.70;28.88;;;7.20;99.90;;;;;;5036935;28;20059;-69
2022/12/21 02:40:17;;;;;;;115.65;25.40;;;7.20;99.90;;;;;;5037047;28;20041;-69
2022/12/21 02:45:56;;;;;;;282.80;35.97;;;7.30;99.90;;;;;;5037022;28;20049;-69
2022/12/21 02:48:32;;;;;;;249.38;28.70;;;7.20;99.90;;;;;;5037133;28;20354;-69
2022/12/21 02:51:02;;;;;;;98.30;23.60;;;7.10;99.90;;;;;;5036671;28;20056;-69
2022/12/21 02:53:34;;;;;;;294.90;32.30;;;7.10;99.90;;;;;;5036889;28;20150;-69
2022/12/21 02:56:00;;;;;;;183.50;29.00;;;7.10;99.90;;;;;;5037298;28;20087;-69
2022/12/21 02:58:25;;;;;;;94.18;25.98;;;7.10;99.90;;;;;;5036835;28;20139;-69
2022/12/21 03:00:51;;;;;;;261.10;36.05;;;7.10;99.90;;;;;;5037278;28;20045;-69
2022/12/21 03:03:50;;;;;;;139.88;28.60;;;7.20;99.90;;;;;;5036510;28;20411;-69
2022/12/21 03:06:21;;;;;;;380.10;38.00;;;7.20;99.90;;;;;;5036517;28;20496;-69
2022/12/21 03:08:59;;;;;;;137.93;27.67;;;7.20;99.90;;;;;;5019666;28;20153;-69
2022/12/21 03:11:34;;;;;;;161.15;29.85;;;7.20;99.90;;;;;;5036513;28;20377;-69
2022/12/21 03:14:09;;;;;;;167.32;31.60;;;7.30;99.90;;;;;;5036489;28;20100;-69
2022/12/21 03:16:49;;;;;;;251.52;34.08;;;7.20;99.90;;;;;;5036640;28;20132;-69
2022/12/21 03:19:48;;;;;;;93.55;26.50;;;7.20;99.90;;;;;;5036686;28;20049;-69
2022/12/21 03:22:28;;;;;;;241.38;31.20;;;7.20;99.90;;;;;;5017204;28;20054;-69
2022/12/21 03:25:02;;;;;;;122.53;24.55;;;7.20;99.90;;;;;;5016640;28;20049;-69
2022/12/21 03:27:34;;;;;;;190.68;29.52;;;7.20;99.90;;;;;;5016693;28;20046;-69
2022/12/21 03:30:07;;;;;;;200.43;27.00;;;7.20;99.90;;;;;;5016827;28;20046;-69
2022/12/21 03:32:40;;;;;;;;;;;7.20;99.90;;;;;;5016700;28;20081;-69
2022/12/21 03:35:17;;;;;;;197.27;27.65;;;7.20;99.90;;;;;;5022850;28;19921;-69
2022/12/21 03:37:46;;;;;;;115.15;23.40;;;7.20;99.90;;;;;;5035915;28;20049;-69
2022/12/21 03:40:20;;;;;;;91.35;22.75;;;7.20;99.90;;;;;;5036329;28;20111;-69
2022/12/21 03:42:58;;;;;;;120.82;25.17;;;7.20;99.90;;;;;;5036354;28;20389;-69
2022/12/21 03:45:34;;;;;;;265.40;29.85;;;7.20;99.90;;;;;;5035997;28;20103;-69
2022/12/21 03:48:08;;;;;;;70.78;20.13;;;7.20;99.90;;;;;;5036158;28;20061;-69
2022/12/21 03:50:43;;;;;;;86.63;20.95;;;7.20;99.90;;;;;;5035626;28;20041;-69
2022/12/21 03:53:28;;;;;;;125.30;23.65;;;7.20;99.90;;;;;;5036114;28;20354;-69
2022/12/21 03:55:57;;;;;;;113.90;21.73;;;7.20;99.90;;;;;;5035990;28;20418;-69
2022/12/21 03:58:23;;;;;;;78.65;20.85;;;7.20;99.90;;;;;;5035982;28;20132;-69
2022/12/21 04:01:04;;;;;;;71.30;20.77;;;7.10;99.90;;;;;;5034476;28;20132;-69
2022/12/21 04:03:37;;;;;;;132.82;22.35;;;7.10;99.90;;;;;;5035609;28;20071;-69
2022/12/21 04:06:08;;;;;;;122.15;22.65;;;7.10;99.90;;;;;;5035326;28;20049;-68
2022/12/21 04:08:37;;;;;;;157.95;22.70;;;7.10;99.90;;;;;;5035640;28;20375;-69
2022/12/21 04:11:02;;;;;;;164.35;24.33;;;7.10;99.90;;;;;;5035536;28;20053;-69
2022/12/21 04:13:28;;;;;;;131.95;22.52;;;7.10;99.90;;;;;;5035196;28;20505;-69
2022/12/21 04:16:05;;;;;;;106.03;20.75;;;7.10;99.90;;;;;;5035436;28;20088;-69
2022/12/21 04:21:16;;;;;;;61.10;19.38;;;7.10;99.90;;;;;;5035524;28;20124;-69
2022/12/21 04:29:10;;;;;;;194.50;24.58;;;7.10;99.90;;;;;;5034458;28;20057;-69
2022/12/21 04:31:36;;;;;;;89.63;19.50;;;7.20;99.90;;;;;;5035453;28;20366;-69
2022/12/21 04:34:01;;;;;;;180.27;24.13;;;7.10;99.90;;;;;;5035227;28;20045;-69
2022/12/21 04:39:11;;;;;;;138.40;19.88;;;7.00;99.90;;;;;;5035208;28;20064;-69
2022/12/21 04:41:37;;;;;;;78.53;17.70;;;6.90;99.90;;;;;;5018069;28;20046;-69
2022/12/21 04:44:02;;;;;;;128.25;21.55;;;6.90;99.90;;;;;;5034725;28;20423;-69
2022/12/21 04:46:28;;;;;;;88.55;19.33;;;6.90;99.90;;;;;;5035041;28;20111;-71
2022/12/21 04:48:54;;;;;;;72.20;19.20;;;6.90;99.90;;;;;;5035273;28;20080;-69
2022/12/21 04:51:24;;;;;;;84.55;18.45;;;6.90;99.90;;;;;;5035345;28;20425;-68
2022/12/21 04:53:50;;;;;;;69.63;18.58;;;6.90;99.90;;;;;;5034801;28;20064;-69
2022/12/21 04:56:16;;;;;;;190.55;25.60;;;6.90;99.90;;;;;;5034955;28;20135;-69
2022/12/21 04:58:42;;;;;;;270.20;28.13;;;6.90;99.90;;;;;;5034716;28;20038;-68
2022/12/21 05:01:09;;;;;;;196.98;24.75;;;6.80;99.90;;;;;;5034965;28;20047;-70
2022/12/21 05:03:35;;;;;;;167.35;22.77;;;6.80;99.90;;;;;;5034550;28;20064;-69
2022/12/21 05:06:01;;;;;;;209.40;24.70;;;6.80;99.90;;;;;;5034314;28;20042;-68
2022/12/21 05:08:27;;;;;;;141.85;22.40;;;6.80;99.90;;;;;;5034647;28;20056;-68
2022/12/21 05:10:53;;;;;;;108.47;21.20;;;6.80;99.90;;;;;;5018540;28;20045;-68
2022/12/21 05:13:19;;;;;;;175.77;24.15;;;6.70;99.90;;;;;;5038948;28;20048;-68
2022/12/21 05:15:45;;;;;;;174.85;24.77;;;6.80;99.90;;;;;;5038014;28;20120;-69
2022/12/21 05:18:11;;;;;;;174.20;21.25;;;6.70;99.90;;;;;;5038423;28;20125;-69
2022/12/21 05:20:36;;;;;;;99.93;17.67;;;6.80;99.90;;;;;;5038627;28;20111;-68
2022/12/21 05:23:02;;;;;;;102.60;19.00;;;6.60;99.90;;;;;;5038582;28;20045;-69
2022/12/21 05:25:27;;;;;;;107.50;19.08;;;6.80;99.90;;;;;;5038884;28;20152;-68
2022/12/21 05:27:53;;;;;;;110.20;19.10;;;6.60;99.90;;;;;;5038732;28;20122;-69
2022/12/21 05:30:19;;;;;;;77.57;19.10;;;6.70;99.90;;;;;;5038285;28;20041;-69
2022/12/21 05:32:44;;;;;;;160.63;22.33;;;6.60;99.90;;;;;;5021590;28;20049;-69
2022/12/21 05:35:10;;;;;;;221.30;25.45;;;6.60;99.90;;;;;;5038262;28;20063;-69
2022/12/21 05:37:36;;;;;;;119.93;19.98;;;6.60;99.90;;;;;;5038387;28;20394;-69
2022/12/21 05:40:01;;;;;;;151.85;23.00;;;6.60;99.90;;;;;;5038262;28;20049;-69
2022/12/21 05:42:27;;;;;;;178.27;23.35;;;6.60;99.90;;;;;;5038344;28;20044;-69
2022/12/21 05:44:52;;;;;;;86.30;19.90;;;6.70;99.90;;;;;;5037760;28;20409;-69
2022/12/21 05:47:18;;;;;;;187.90;24.42;;;6.90;99.90;;;;;;5038083;28;20042;-68
2022/12/21 05:49:43;;;;;;;277.42;27.83;;;6.60;99.90;;;;;;5038510;28;20041;-70
2022/12/21 05:52:09;;;;;;;164.88;25.02;;;6.60;99.90;;;;;;5038248;28;20538;-68
2022/12/21 05:54:34;;;;;;;69.60;20.58;;;6.60;99.90;;;;;;5038093;28;20476;-69
2022/12/21 05:57:00;;;;;;;112.18;22.27;;;6.60;99.90;;;;;;5038601;28;20138;-70
2022/12/21 05:59:26;;;;;;;189.85;26.48;;;6.60;99.90;;;;;;5037650;28;20048;-69
2022/12/21 06:01:51;;;;;;;216.63;29.88;;;6.60;99.90;;;;;;5037822;28;20056;-69
2022/12/21 06:04:17;;;;;;;197.13;27.08;;;6.60;99.90;;;;;;5037503;28;20053;-69
2022/12/21 06:06:46;;;;;;;207.10;29.38;;;6.60;99.90;;;;;;5037789;28;20057;-69
2022/12/21 06:09:12;;;;;;;123.70;24.60;;;6.60;99.90;;;;;;5037737;28;20114;-70
2022/12/21 06:11:38;;;;;;;122.88;23.90;;;6.60;99.90;;;;;;5037953;28;20045;-70
2022/12/21 06:14:03;;;;;;;159.00;25.25;;;6.60;99.90;;;;;;5037550;28;20067;-70
2022/12/21 06:16:29;;;;;;;92.15;22.48;;;6.60;99.90;;;;;;5037842;28;20041;-70
2022/12/21 06:18:54;;;;;;;169.32;26.00;;;6.60;99.90;;;;;;5037443;28;20045;-70
2022/12/21 06:21:20;;;;;;;160.65;27.27;;;6.50;99.90;;;;;;5037510;28;20057;-70
2022/12/21 06:23:47;;;;;;;206.68;29.85;;;6.50;99.90;;;;;;5036733;28;20115;-70
2022/12/21 06:26:16;;;;;;;85.85;23.65;;;6.70;99.90;;;;;;5037447;28;20096;-70
2022/12/21 06:28:46;;;;;;;133.35;25.75;;;6.60;99.90;;;;;;5037462;28;20079;-70
2022/12/21 06:31:13;;;;;;;123.45;27.65;;;6.50;99.90;;;;;;5037667;28;20072;-70
2022/12/21 06:33:39;;;;;;;108.43;25.33;;;6.60;99.90;;;;;;5037081;28;20133;-70
2022/12/21 06:36:06;;;;;;;370.52;42.58;;;6.60;99.90;;;;;;5037144;28;20060;-70
2022/12/21 06:38:32;;;;;;;306.40;40.53;;;6.60;99.90;;;;;;5037090;28;20484;-70
2022/12/21 06:41:11;;;;;;;120.32;27.77;;;6.60;99.90;;;;;;5037518;28;20080;-70
2022/12/21 06:43:38;;;;;;;210.27;34.00;;;6.60;99.90;;;;;;5037432;28;20092;-70
2022/12/21 06:46:09;;;;;;;109.40;29.10;;;6.60;99.90;;;;;;5036802;28;20037;-69
2022/12/21 06:48:36;;;;;;;269.75;39.40;;;6.60;99.90;;;;;;5037070;28;20045;-70
2022/12/21 06:51:05;;;;;;;116.32;31.35;;;6.60;99.90;;;;;;5037141;28;20051;-70
2022/12/21 06:53:33;;;;;;;123.22;32.75;;;6.60;99.90;;;;;;5037164;28;20095;-70
2022/12/21 06:56:06;;;;;;;239.40;41.17;;;6.60;99.90;;;;;;5036793;28;20045;-70
2022/12/21 06:58:33;;;;;;;135.70;32.95;;;6.60;99.90;;;;;;5036871;28;20132;-69
2022/12/21 07:01:20;;;;;;;98.88;31.10;;;6.70;99.90;;;;;;5036550;28;20457;-69
2022/12/21 07:03:46;;;;;;;159.30;37.15;;;6.70;99.90;;;;;;5036632;28;20057;-70
2022/12/21 07:06:14;;;;;;;96.85;30.23;;;6.60;99.90;;;;;;5036960;28;20048;-70
2022/12/21 07:08:40;;;;;;;272.45;42.50;;;6.70;99.90;;;;;;5037401;28;20084;-71
2022/12/21 07:11:09;;;;;;;150.95;34.10;;;6.70;99.90;;;;;;5036626;28;20045;-70
2022/12/21 07:13:36;;;;;;;111.82;31.75;;;6.70;99.90;;;;;;5036451;28;20142;-70
2022/12/21 07:16:01;;;;;;;120.72;31.80;;;6.80;99.90;;;;;;5036585;28;20450;-70
2022/12/21 07:18:27;;;;;;;239.55;37.88;;;6.70;99.90;;;;;;5036431;28;20060;-70
2022/12/21 07:21:02;;;;;;;180.77;35.63;;;6.70;99.90;;;;;;5037132;28;20060;-70
2022/12/21 07:23:28;;;;;;;106.57;31.30;;;6.70;99.90;;;;;;5036574;28;20041;-70
2022/12/21 07:25:54;;;;;;;168.65;38.17;;;6.70;99.90;;;;;;5036471;28;20051;-70
2022/12/21 07:28:24;;;;;;;257.58;42.13;;;6.70;99.90;;;;;;5035959;28;20041;-70
2022/12/21 07:30:51;;;;;;;155.90;37.70;;;6.70;99.90;;;;;;5036058;28;20050;-70
2022/12/21 07:33:18;;;;;;;161.40;37.78;;;6.70;99.90;;;;;;5036383;28;20056;-69
2022/12/21 07:35:44;;;;;;;241.50;41.75;;;6.70;99.90;;;;;;5035404;28;20041;-69
2022/12/21 07:38:10;;;;;;;148.60;37.70;;;6.70;99.90;;;;;;5035997;28;20069;-70
2022/12/21 07:40:37;;;;;;;216.10;42.50;;;6.70;99.90;;;;;;5035986;28;20049;-70
2022/12/21 07:43:10;;;;;;;321.48;50.92;;;6.70;99.90;;;;;;5035775;28;20076;-70
2022/12/21 07:45:39;;;;;;;307.98;47.63;;;6.80;99.90;;;;;;5036052;28;20120;-70
2022/12/21 07:48:05;;;;;;;126.13;36.50;;;6.80;99.90;;;;;;5036157;28;20056;-70
2022/12/21 07:50:31;;;;;;;133.32;37.38;;;6.80;99.90;;;;;;5035823;28;20045;-71
2022/12/21 07:53:00;;;;;;;190.23;44.08;;;6.80;99.90;;;;;;5036290;28;20457;-70
2022/12/21 07:55:25;;;;;;;142.32;39.58;;;6.80;99.90;;;;;;5035772;28;20044;-71
2022/12/21 07:57:52;;;;;;;464.35;63.70;;;7.00;99.90;;;;;;5035565;28;20042;-71
2022/12/21 08:00:18;;;;;;;186.20;43.13;;;6.80;99.90;;;;;;5036060;28;20324;-70
2022/12/21 08:02:44;;;;;;;220.20;45.83;;;6.90;99.90;;;;;;5035884;28;20050;-71
2022/12/21 08:05:09;;;;;;;118.55;39.03;;;7.10;99.90;;;;;;5035738;28;20210;-70
2022/12/21 08:07:35;;;;;;;138.23;42.13;;;6.90;99.90;;;;;;5035462;28;20041;-70
2022/12/21 08:10:00;;;;;;;139.52;40.17;;;7.00;99.90;;;;;;5035428;28;20049;-70
2022/12/21 08:12:26;;;;;;;140.65;42.20;;;7.10;99.90;;;;;;5035336;28;20396;-70
2022/12/21 08:14:52;;;;;;;176.32;41.67;;;7.00;99.90;;;;;;5018363;28;20048;-71
2022/12/21 08:17:17;;;;;;;158.95;44.95;;;7.00;99.90;;;;;;5035496;28;20064;-71
2022/12/21 08:19:43;;;;;;;180.40;46.15;;;7.00;99.90;;;;;;5035702;28;20133;-71
2022/12/21 08:22:09;;;;;;;199.43;47.65;;;7.00;99.90;;;;;;5018181;28;20386;-71
2022/12/21 08:24:35;;;;;;;213.18;48.47;;;7.00;99.90;;;;;;5035504;28;20053;-70
2022/12/21 08:27:01;;;;;;;200.30;47.50;;;7.00;99.90;;;;;;5035339;28;20045;-71
2022/12/21 08:29:27;;;;;;;149.30;43.72;;;7.00;99.90;;;;;;5035979;28;20048;-71
2022/12/21 08:31:52;;;;;;;171.73;47.45;;;7.20;99.90;;;;;;5035351;28;20511;-70
2022/12/21 08:34:18;;;;;;;112.72;38.15;;;7.00;99.90;;;;;;5001182;28;20056;-71
2022/12/21 08:36:44;;;;;;;138.07;42.00;;;7.10;99.90;;;;;;5017613;28;20384;-70
2022/12/21 08:39:09;;;;;;;148.02;44.22;;;7.10;99.90;;;;;;5035102;28;20045;-71
2022/12/21 08:41:35;;;;;;;147.98;43.28;;;7.60;99.90;;;;;;5035114;28;20041;-71
2022/12/21 08:44:01;;;;;;;150.32;42.08;;;7.20;99.90;;;;;;5035376;28;20126;-70
2022/12/21 08:46:26;;;;;;;174.85;46.05;;;7.20;99.90;;;;;;5017220;28;20037;-70
2022/12/21 08:48:52;;;;;;;171.82;44.72;;;7.10;99.90;;;;;;5034241;28;20130;-71
2022/12/21 08:51:18;;;;;;;137.05;42.80;;;7.10;99.90;;;;;;5032853;28;20045;-71
2022/12/21 08:53:44;;;;;;;132.45;41.03;;;7.30;99.90;;;;;;5034484;28;20041;-71
2022/12/21 08:56:09;;;;;;;146.82;42.25;;;7.10;99.90;;;;;;5035462;28;20068;-70
2022/12/21 08:58:35;;;;;;;141.23;41.70;;;7.20;99.90;;;;;;5035101;28;20461;-70
2022/12/21 09:01:01;;;;;;;136.10;40.92;;;7.40;99.90;;;;;;5034847;28;20049;-71
2022/12/21 09:03:27;;;;;;;132.32;39.95;;;7.40;99.90;;;;;;5034426;28;20060;-70
2022/12/21 09:05:54;;;;;;;130.80;39.83;;;7.40;99.90;;;;;;5034502;28;20468;-70
2022/12/21 09:08:19;;;;;;;115.25;39.67;;;7.40;99.90;;;;;;5035324;28;20115;-71
2022/12/21 09:10:45;;;;;;;126.53;38.03;;;7.60;99.90;;;;;;5035033;28;20046;-71
2022/12/21 09:13:11;;;;;;;115.05;37.30;;;7.50;99.90;;;;;;5034758;28;20042;-70
2022/12/21 09:15:41;;;;;;;111.53;37.85;;;7.50;99.90;;;;;;5034740;28;20361;-71
2022/12/21 09:18:08;;;;;;;134.65;39.10;;;7.50;99.90;;;;;;5034594;28;20118;-71
2022/12/21 09:20:34;;;;;;;121.90;39.20;;;7.50;99.90;;;;;;5034526;28;20117;-71
2022/12/21 09:22:59;;;;;;;140.43;41.03;;;7.60;99.90;;;;;;5034803;28;20480;-71
2022/12/21 09:25:25;;;;;;;95.78;37.25;;;7.70;99.90;;;;;;5017704;28;20462;-70
2022/12/21 09:27:50;;;;;;;124.80;39.50;;;7.70;99.90;;;;;;5034802;28;20045;-71
2022/12/21 09:30:16;;;;;;;111.63;39.65;;;7.80;99.90;;;;;;5034242;28;20048;-71
2022/12/21 09:32:42;;;;;;;106.88;37.85;;;7.80;99.90;;;;;;5034414;28;20434;-70
2022/12/21 09:35:07;;;;;;;128.05;41.72;;;7.80;99.90;;;;;;5017764;28;20049;-71
2022/12/21 09:37:33;;;;;;;97.25;37.50;;;7.90;99.90;;;;;;5035013;28;20116;-71
2022/12/21 09:39:59;;;;;;;105.05;38.88;;;7.90;99.90;;;;;;5034801;28;20060;-71
2022/12/21 09:42:52;;;;;;;128.02;41.90;;;7.90;99.90;;;;;;5017270;28;20114;-71
2022/12/21 09:45:42;;;;;;;100.67;40.70;;;8.00;99.90;;;;;;5034132;28;20068;-70
2022/12/21 09:48:19;;;;;;;94.07;39.95;;;8.00;99.90;;;;;;5034469;28;20041;-70
2022/12/21 09:50:56;;;;;;;97.10;39.50;;;8.20;99.90;;;;;;5034611;28;20041;-71
2022/12/21 09:53:28;;;;;;;89.10;38.58;;;8.10;99.90;;;;;;5017250;28;20061;-70
2022/12/21 09:55:56;;;;;;;105.05;37.38;;;8.10;99.90;;;;;;5034133;28;20045;-70
2022/12/21 09:58:37;;;;;;;92.45;37.03;;;8.10;99.90;;;;;;5036532;28;20136;-71
2022/12/21 10:01:32;;;;;;;87.25;35.38;;;8.00;99.90;;;;;;5037909;28;20052;-71
2022/12/21 10:04:09;;;;;;;95.25;39.28;;;8.00;99.90;;;;;;5037973;28;20068;-71
2022/12/21 10:07:04;;;;;;;95.88;38.78;;;8.00;99.90;;;;;;5038138;28;20057;-71
2022/12/21 10:09:47;;;;;;;96.22;40.63;;;8.10;99.90;;;;;;5014112;28;20205;-71
2022/12/21 10:12:45;;;;;;;90.53;37.80;;;8.10;99.90;;;;;;5037681;28;20053;-70
2022/12/21 10:15:23;;;;;;;83.10;38.63;;;8.10;99.90;;;;;;5033814;28;20057;-70
2022/12/21 10:17:56;;;;;;;100.28;40.28;;;8.10;99.90;;;;;;5038250;28;20060;-70
2022/12/21 10:20:48;;;;;;;93.45;39.83;;;8.10;99.90;;;;;;5020505;28;20100;-70
2022/12/21 10:23:25;;;;;;;83.80;35.20;;;8.10;99.90;;;;;;5037099;28;20537;-71
2022/12/21 10:26:00;;;;;;;87.15;37.15;;;8.00;99.90;;;;;;5037288;28;20094;-71
2022/12/21 10:28:30;;;;;;;74.22;34.92;;;8.00;99.90;;;;;;5037295;28;20034;-71
2022/12/21 10:31:05;;;;;;;72.88;34.72;;;8.00;99.90;;;;;;5037619;28;20116;-71
2022/12/21 10:33:33;;;;;;;73.75;33.58;;;8.00;99.90;;;;;;5037545;28;20099;-71
2022/12/21 10:36:03;;;;;;;74.15;34.08;;;7.90;99.90;;;;;;5037198;28;20060;-71
2022/12/21 10:38:33;;;;;;;84.60;36.50;;;8.00;99.90;;;;;;5037339;28;20053;-71
2022/12/21 10:41:01;;;;;;;80.13;35.80;;;8.00;99.90;;;;;;5020105;28;20073;-71
2022/12/21 10:43:26;;;;;;;73.03;36.00;;;8.00;99.90;;;;;;5037013;28;20046;-70
2022/12/21 10:45:52;;;;;;;85.32;37.72;;;8.30;99.90;;;;;;5036692;28;20045;-70
2022/12/21 10:48:19;;;;;;;74.60;35.30;;;8.10;99.90;;;;;;5036597;28;20045;-71
2022/12/21 10:50:49;;;;;;;88.75;36.60;;;8.10;99.90;;;;;;5037220;28;20056;-71
2022/12/21 10:53:26;;;;;;;70.75;34.20;;;8.00;99.90;;;;;;5020027;28;20088;-70
2022/12/21 10:55:58;;;;;;;70.93;35.85;;;8.00;99.90;;;;;;5036827;28;20128;-71
2022/12/21 10:58:27;;;;;;;74.40;35.83;;;8.00;99.90;;;;;;5037099;28;20365;-70
2022/12/21 11:01:06;;;;;;;70.75;34.15;;;7.90;99.90;;;;;;5036811;28;20116;-71
2022/12/21 11:03:37;;;;;;;70.80;33.53;;;7.90;99.90;;;;;;5036730;28;20469;-71
2022/12/21 11:06:16;;;;;;;68.45;33.50;;;7.90;99.90;;;;;;5037069;28;20077;-70
2022/12/21 11:08:45;;;;;;;72.13;33.83;;;7.90;99.90;;;;;;5019374;28;20049;-70
2022/12/21 11:11:36;;;;;;;74.70;32.83;;;7.90;99.90;;;;;;5036527;28;20045;-70
2022/12/21 11:14:14;;;;;;;69.75;33.65;;;7.90;99.90;;;;;;5037182;28;20102;-70
2022/12/21 11:16:41;;;;;;;65.13;31.80;;;7.90;99.90;;;;;;5036197;28;20045;-70
2022/12/21 11:19:14;;;;;;;88.38;35.13;;;7.90;99.90;;;;;;5036532;28;20057;-70
2022/12/21 11:21:46;;;;;;;74.40;32.95;;;7.80;99.90;;;;;;5036372;28;20232;-70
2022/12/21 11:24:25;;;;;;;66.82;30.88;;;7.80;99.90;;;;;;5036233;28;20118;-70
2022/12/21 11:26:58;;;;;;;69.32;30.98;;;7.70;99.90;;;;;;5036559;28;20103;-70
2022/12/21 11:29:38;;;;;;;73.45;32.75;;;7.70;99.90;;;;;;5037002;28;20049;-70
2022/12/21 11:32:10;;;;;;;69.78;33.08;;;7.70;99.90;;;;;;5036037;28;20045;-70
2022/12/21 11:34:39;;;;;;;76.38;32.75;;;7.70;99.90;;;;;;5036502;28;20139;-70
2022/12/21 11:37:27;;;;;;;75.63;33.65;;;7.70;99.90;;;;;;4985082;28;20378;-70
2022/12/21 11:39:56;;;;;;;80.07;32.78;;;7.70;99.90;;;;;;5036339;28;20041;-71
2022/12/21 11:42:24;;;;;;;74.90;31.80;;;7.70;99.90;;;;;;5035972;28;20049;-71
2022/12/21 11:45:03;;;;;;;89.15;34.30;;;7.70;99.90;;;;;;5036500;28;20056;-70
2022/12/21 11:47:36;;;;;;;75.88;31.52;;;7.70;99.90;;;;;;5035417;28;20045;-70
2022/12/21 11:50:30;;;;;;;70.78;31.58;;;7.80;99.90;;;;;;5036099;28;20048;-70
2022/12/21 11:53:10;;;;;;;63.87;30.13;;;7.70;99.90;;;;;;5036290;28;20049;-70
2022/12/21 11:55:58;;;;;;;71.50;30.98;;;7.70;99.90;;;;;;5035643;28;20315;-69
2022/12/21 11:58:49;;;;;;;65.05;27.65;;;7.70;99.90;;;;;;5035848;28;20441;-70
2022/12/21 12:01:40;;;;;;;71.60;29.15;;;7.70;99.90;;;;;;5028140;28;20057;-70
2022/12/21 12:04:26;;;;;;;64.30;29.15;;;7.70;99.90;;;;;;5035543;28;20057;-69
2022/12/21 12:06:58;;;;;;;70.43;27.92;;;7.70;99.90;;;;;;5035733;28;20151;-69
2022/12/21 12:09:45;;;;;;;69.65;29.45;;;7.70;99.90;;;;;;5035254;28;20068;-70
2022/12/21 12:12:49;;;;;;;77.38;36.80;;;7.70;99.90;;;;;;5035411;28;20128;-69
2022/12/21 12:15:37;;;;;;;80.32;36.03;;;7.70;99.90;;;;;;5035561;28;20049;-70
2022/12/21 12:18:30;;;;;;;69.05;34.67;;;7.90;99.90;;;;;;5015845;28;20466;-69
2022/12/21 12:20:56;;;;;;;69.18;30.95;;;7.70;99.90;;;;;;5015003;28;20082;-70
2022/12/21 12:23:27;;;;;;;65.72;27.65;;;7.70;99.90;;;;;;4997994;28;20088;-70
2022/12/21 12:26:07;;;;;;;66.28;30.70;;;7.90;99.90;;;;;;4998778;28;20137;-69
2022/12/21 12:28:56;;;;;;;75.07;30.88;;;7.70;99.90;;;;;;5016081;28;20038;-70
2022/12/21 12:31:50;;;;;;;70.88;37.10;;;7.80;99.90;;;;;;5025890;28;20049;-69
2022/12/21 12:34:40;;;;;;;72.50;33.65;;;7.80;99.90;;;;;;5035052;28;20369;-69
2022/12/21 12:37:27;;;;;;;71.63;34.92;;;7.80;99.90;;;;;;5035066;28;20092;-70
2022/12/21 12:40:05;;;;;;;65.78;30.85;;;7.80;99.90;;;;;;5035279;28;20049;-69
2022/12/21 12:42:42;;;;;;;71.55;33.72;;;7.80;99.90;;;;;;5035257;28;20053;-70
2022/12/21 12:45:21;;;;;;;70.80;34.17;;;7.80;99.90;;;;;;5034762;28;20128;-69
2022/12/21 12:48:00;;;;;;;72.95;32.28;;;7.80;99.90;;;;;;5034906;28;20057;-69
2022/12/21 12:50:30;;;;;;;65.13;30.27;;;7.80;99.90;;;;;;5034523;28;20052;-69
2022/12/21 12:53:02;;;;;;;64.75;31.08;;;7.90;99.90;;;;;;5035738;28;20056;-69
2022/12/21 12:55:33;;;;;;;63.08;30.13;;;8.10;99.90;;;;;;5034741;28;20056;-70
2022/12/21 12:58:17;;;;;;;68.78;33.00;;;7.90;99.90;;;;;;5034871;28;20059;-70
2022/12/21 13:01:11;;;;;;;63.28;30.27;;;7.90;99.90;;;;;;5034488;28;20041;-69
2022/12/21 13:04:14;;;;;;;62.75;29.88;;;7.90;99.90;;;;;;5034600;28;20053;-69
2022/12/21 13:06:55;;;;;;;67.90;31.85;;;7.90;99.90;;;;;;5034926;28;20366;-70